Time;durP1;ratioP1;P1;durP2;ratioP2;P2;SDS_P1;SDS_P2;PMS_P1;PMS_P2;Temp;Humidity;BMP_temperature;BMP_pressure;BME280_temperature;BME280_humidity;BME280_pressure;Samples;Min_cycle;Max_cycle;Signal;HPM_P1;HPM_P2
2023/05/25 00:00:07;;;;;;;0.00;0.00;;;10.00;99.90;;;;;;5050313;28;20189;-62
2023/05/25 00:02:34;;;;;;;0.00;0.00;;;10.00;99.90;;;;;;5050515;28;20170;-62
2023/05/25 00:05:01;;;;;;;0.00;0.00;;;10.00;99.90;;;;;;5050345;28;20267;-62
2023/05/25 00:07:26;;;;;;;0.00;0.00;;;10.00;99.90;;;;;;5050201;28;20665;-62
2023/05/25 00:09:52;;;;;;;0.00;0.00;;;10.00;99.90;;;;;;5050766;28;20245;-63
2023/05/25 00:12:18;;;;;;;0.00;0.00;;;10.00;99.90;;;;;;5050508;28;20204;-62
2023/05/25 00:14:44;;;;;;;0.00;0.00;;;10.00;99.90;;;;;;5050244;28;20174;-63
2023/05/25 00:17:10;;;;;;;0.00;0.00;;;10.00;99.90;;;;;;5050698;28;20192;-63
2023/05/25 00:19:42;;;;;;;0.00;0.00;;;9.90;99.90;;;;;;5050265;28;20185;-62
2023/05/25 00:22:09;;;;;;;0.00;0.00;;;10.00;99.90;;;;;;5050252;28;20528;-63
2023/05/25 00:24:35;;;;;;;0.15;0.15;;;9.90;99.90;;;;;;5050340;28;20312;-62
2023/05/25 00:27:01;;;;;;;0.00;0.00;;;9.90;99.90;;;;;;5049804;28;20285;-63
2023/05/25 00:29:26;;;;;;;0.00;0.00;;;9.90;99.90;;;;;;5049601;28;20530;-63
2023/05/25 00:31:52;;;;;;;0.00;0.00;;;9.90;99.90;;;;;;5040430;28;20186;-63
2023/05/25 00:34:18;;;;;;;0.00;0.00;;;9.90;99.90;;;;;;5043971;28;20715;-62
2023/05/25 00:36:47;;;;;;;0.00;0.00;;;9.90;99.90;;;;;;5050091;28;20209;-62
2023/05/25 00:39:16;;;;;;;0.05;0.05;;;9.90;99.90;;;;;;5033144;28;20214;-62
2023/05/25 00:41:44;;;;;;;0.00;0.00;;;9.80;99.90;;;;;;5044561;28;20177;-62
2023/05/25 00:44:10;;;;;;;0.10;0.10;;;9.80;99.90;;;;;;5050177;28;20255;-62
2023/05/25 00:46:37;;;;;;;0.00;0.00;;;9.80;99.90;;;;;;5042830;28;20224;-62
2023/05/25 00:49:03;;;;;;;0.00;0.00;;;9.70;99.90;;;;;;5047435;28;20651;-63
2023/05/25 00:51:31;;;;;;;0.00;0.00;;;9.70;99.90;;;;;;5053474;28;20243;-63
2023/05/25 00:53:57;;;;;;;0.00;0.00;;;9.70;99.90;;;;;;5053562;28;20204;-63
2023/05/25 00:56:27;;;;;;;0.00;0.00;;;9.70;99.90;;;;;;5053592;28;20506;-62
2023/05/25 00:58:55;;;;;;;0.00;0.00;;;9.60;99.90;;;;;;5053366;28;20223;-63
2023/05/25 01:01:22;;;;;;;0.00;0.00;;;9.70;99.90;;;;;;5053651;28;20640;-63
2023/05/25 01:03:53;;;;;;;0.00;0.00;;;9.60;99.90;;;;;;5052966;28;20228;-63
2023/05/25 01:06:21;;;;;;;0.35;0.35;;;9.60;99.90;;;;;;5053217;28;20282;-62
2023/05/25 01:08:52;;;;;;;0.00;0.00;;;9.60;99.90;;;;;;5053343;28;20227;-63
2023/05/25 01:11:25;;;;;;;0.00;0.00;;;9.60;99.90;;;;;;5053037;28;20264;-62
2023/05/25 01:13:52;;;;;;;0.00;0.00;;;9.60;99.90;;;;;;5053307;28;20208;-63
2023/05/25 01:16:19;;;;;;;0.05;0.05;;;9.60;99.90;;;;;;5052707;28;20514;-63
2023/05/25 01:18:46;;;;;;;0.00;0.00;;;9.60;99.90;;;;;;5053055;28;20216;-60
2023/05/25 01:21:29;;;;;;;0.00;0.00;;;9.60;99.90;;;;;;5053220;28;20181;-60
2023/05/25 01:24:21;;;;;;;0.00;0.00;;;9.60;99.90;;;;;;5033208;28;20858;-60
2023/05/25 01:27:06;;;;;;;0.00;0.00;;;9.60;99.90;;;;;;5035396;28;20234;-61
2023/05/25 01:29:33;;;;;;;0.00;0.00;;;9.60;99.90;;;;;;5050096;28;20189;-60
2023/05/25 01:32:01;;;;;;;0.00;0.00;;;9.60;99.90;;;;;;5051753;28;20276;-60
2023/05/25 01:34:28;;;;;;;0.00;0.00;;;9.60;99.90;;;;;;5053055;28;20514;-61
2023/05/25 01:36:54;;;;;;;0.00;0.00;;;9.60;99.90;;;;;;5052319;28;20192;-60
2023/05/25 01:39:21;;;;;;;0.00;0.00;;;9.60;99.90;;;;;;5052792;28;20174;-60
2023/05/25 01:41:47;;;;;;;0.00;0.00;;;9.50;99.90;;;;;;5052772;28;20268;-60
2023/05/25 01:44:13;;;;;;;0.00;0.00;;;9.50;99.90;;;;;;5052270;28;20327;-60
2023/05/25 01:46:39;;;;;;;0.00;0.00;;;9.50;99.90;;;;;;5052611;28;20213;-60
2023/05/25 01:49:28;;;;;;;0.00;0.00;;;9.50;99.90;;;;;;5052454;28;20193;-60
2023/05/25 01:52:06;;;;;;;0.10;0.10;;;9.40;99.90;;;;;;5052111;28;20188;-61
2023/05/25 01:54:40;;;;;;;0.00;0.00;;;9.40;99.90;;;;;;5052592;28;20169;-60
2023/05/25 01:57:12;;;;;;;0.00;0.00;;;9.40;99.90;;;;;;5051103;28;20197;-61
2023/05/25 01:59:41;;;;;;;0.00;0.00;;;9.40;99.90;;;;;;5051990;28;20181;-60
2023/05/25 02:02:08;;;;;;;0.00;0.00;;;9.30;99.90;;;;;;5052102;28;20181;-60
2023/05/25 02:04:34;;;;;;;0.00;0.00;;;9.40;99.90;;;;;;5052114;28;20173;-60
2023/05/25 02:06:59;;;;;;;0.00;0.00;;;9.30;99.90;;;;;;5051339;28;20186;-60
2023/05/25 02:09:25;;;;;;;0.00;0.00;;;9.30;99.90;;;;;;5051891;28;20178;-60
2023/05/25 02:11:50;;;;;;;0.00;0.00;;;9.30;99.90;;;;;;5051195;28;20196;-60
2023/05/25 02:14:16;;;;;;;0.00;0.00;;;9.30;99.90;;;;;;5051515;28;20188;-60
2023/05/25 02:16:44;;;;;;;0.00;0.00;;;9.40;99.90;;;;;;5051810;28;20205;-60
2023/05/25 02:19:11;;;;;;;0.00;0.00;;;9.40;99.90;;;;;;5050597;28;20186;-60
2023/05/25 02:21:37;;;;;;;0.00;0.00;;;9.40;99.90;;;;;;5051461;28;20170;-60
2023/05/25 02:24:02;;;;;;;0.00;0.00;;;9.30;99.90;;;;;;5051694;28;20318;-60
2023/05/25 02:26:28;;;;;;;0.28;0.22;;;9.30;99.90;;;;;;5051530;28;20730;-61
2023/05/25 02:28:53;;;;;;;0.00;0.00;;;9.40;99.90;;;;;;5051361;28;20197;-61
2023/05/25 02:31:20;;;;;;;0.00;0.00;;;9.30;99.90;;;;;;5050661;28;20651;-60
2023/05/25 02:33:45;;;;;;;0.00;0.00;;;9.30;99.90;;;;;;5051256;28;20196;-60
2023/05/25 02:36:11;;;;;;;0.00;0.00;;;9.30;99.90;;;;;;5050666;28;20738;-60
2023/05/25 02:38:36;;;;;;;0.00;0.00;;;9.30;99.90;;;;;;5051478;28;20204;-60
2023/05/25 02:41:02;;;;;;;0.00;0.00;;;9.30;99.90;;;;;;5051262;28;20185;-60
2023/05/25 02:43:27;;;;;;;0.00;0.00;;;9.30;99.90;;;;;;5051269;28;20181;-60
2023/05/25 02:45:53;;;;;;;0.00;0.00;;;9.30;99.90;;;;;;5051402;28;20217;-60
2023/05/25 02:48:18;;;;;;;0.00;0.00;;;9.30;99.90;;;;;;5050175;28;20169;-60
2023/05/25 02:50:44;;;;;;;0.00;0.00;;;9.20;99.90;;;;;;5051234;28;20188;-60
2023/05/25 02:53:10;;;;;;;0.00;0.00;;;9.30;99.90;;;;;;5051427;28;20620;-60
2023/05/25 02:55:39;;;;;;;0.00;0.00;;;9.30;99.90;;;;;;5051046;28;20208;-60
2023/05/25 02:58:04;;;;;;;0.00;0.00;;;9.20;99.90;;;;;;5051318;28;20201;-60
2023/05/25 03:00:30;;;;;;;0.00;0.00;;;9.30;99.90;;;;;;5050908;28;20221;-61
2023/05/25 03:02:56;;;;;;;0.00;0.00;;;9.20;99.90;;;;;;5050732;28;20177;-62
2023/05/25 03:05:21;;;;;;;0.00;0.00;;;9.20;99.90;;;;;;5051163;28;20216;-62
2023/05/25 03:07:47;;;;;;;0.00;0.00;;;9.10;99.90;;;;;;5050338;28;20197;-62
2023/05/25 03:10:13;;;;;;;3.20;0.30;;;9.10;99.90;;;;;;5049932;28;20180;-62
2023/05/25 03:12:38;;;;;;;0.00;0.00;;;9.10;99.90;;;;;;5050386;28;20173;-62
2023/05/25 03:15:04;;;;;;;0.10;0.10;;;9.10;99.90;;;;;;5050407;28;20177;-60
2023/05/25 03:17:30;;;;;;;0.00;0.00;;;9.10;99.90;;;;;;5051058;28;20540;-60
2023/05/25 03:19:56;;;;;;;0.00;0.00;;;9.10;99.90;;;;;;5050443;28;20165;-60
2023/05/25 03:22:21;;;;;;;0.00;0.00;;;9.00;99.90;;;;;;5049839;28;20181;-62
2023/05/25 03:24:49;;;;;;;0.00;0.00;;;9.00;99.90;;;;;;5050281;28;20253;-63
2023/05/25 03:27:14;;;;;;;0.00;0.00;;;9.00;99.90;;;;;;5049969;28;20182;-62
2023/05/25 03:29:40;;;;;;;0.00;0.00;;;9.00;99.90;;;;;;5049627;28;21202;-62
2023/05/25 03:32:06;;;;;;;0.00;0.00;;;9.00;99.90;;;;;;5050158;28;20177;-63
2023/05/25 03:34:33;;;;;;;0.00;0.00;;;9.00;99.90;;;;;;5050273;28;20242;-63
2023/05/25 03:36:59;;;;;;;0.10;0.10;;;9.00;99.90;;;;;;5048288;28;20633;-61
2023/05/25 03:39:24;;;;;;;0.00;0.00;;;8.90;99.90;;;;;;5049992;28;20184;-60
2023/05/25 03:41:50;;;;;;;0.00;0.00;;;9.00;99.90;;;;;;5050321;28;20531;-60
2023/05/25 03:44:15;;;;;;;0.40;0.40;;;8.90;99.90;;;;;;5050946;28;20173;-61
2023/05/25 03:46:41;;;;;;;0.00;0.00;;;8.90;99.90;;;;;;5050696;28;20220;-60
2023/05/25 03:49:07;;;;;;;0.13;0.13;;;8.90;99.90;;;;;;5050945;28;20173;-60
2023/05/25 03:51:33;;;;;;;0.00;0.00;;;8.90;99.90;;;;;;5050755;28;20262;-60
2023/05/25 03:53:58;;;;;;;0.00;0.00;;;9.00;99.90;;;;;;5050924;28;20197;-59
2023/05/25 03:56:25;;;;;;;0.00;0.00;;;9.00;99.90;;;;;;5050178;28;20252;-62
2023/05/25 03:58:51;;;;;;;0.60;0.60;;;9.00;99.90;;;;;;5049617;28;20192;-61
2023/05/25 04:01:17;;;;;;;0.00;0.00;;;8.90;99.90;;;;;;5050144;28;20183;-60
2023/05/25 04:03:42;;;;;;;0.00;0.00;;;9.00;99.90;;;;;;5049556;28;20169;-60
2023/05/25 04:06:08;;;;;;;0.00;0.00;;;9.00;99.90;;;;;;5048986;28;20669;-60
2023/05/25 04:08:33;;;;;;;0.10;0.10;;;9.00;99.90;;;;;;5049698;28;20200;-62
2023/05/25 04:10:59;;;;;;;0.00;0.00;;;9.10;99.90;;;;;;5048065;28;20185;-61
2023/05/25 04:13:25;;;;;;;0.00;0.00;;;9.10;99.90;;;;;;5049207;28;20260;-62
2023/05/25 04:15:51;;;;;;;0.00;0.00;;;9.10;99.90;;;;;;5030342;28;20197;-62
2023/05/25 04:18:16;;;;;;;0.00;0.00;;;9.10;99.90;;;;;;5041675;28;20227;-62
2023/05/25 04:20:42;;;;;;;0.00;0.00;;;9.20;99.90;;;;;;5049991;28;20287;-62
2023/05/25 04:23:07;;;;;;;0.00;0.00;;;9.30;99.90;;;;;;5049777;28;20181;-61
2023/05/25 04:25:33;;;;;;;0.00;0.00;;;9.30;99.90;;;;;;5053769;28;20755;-61
2023/05/25 04:27:59;;;;;;;0.00;0.00;;;9.40;99.90;;;;;;5053909;28;20174;-62
2023/05/25 04:30:24;;;;;;;0.10;0.10;;;9.60;99.90;;;;;;5053848;28;20261;-62
2023/05/25 04:32:50;;;;;;;0.00;0.00;;;9.80;99.90;;;;;;5053957;28;20256;-62
2023/05/25 04:35:19;;;;;;;0.00;0.00;;;9.90;99.90;;;;;;5054102;28;20173;-62
2023/05/25 04:37:45;;;;;;;0.00;0.00;;;10.10;99.90;;;;;;5051421;28;20698;-62
2023/05/25 04:40:12;;;;;;;0.00;0.00;;;10.30;99.90;;;;;;5053754;28;20181;-62
2023/05/25 04:42:39;;;;;;;0.00;0.00;;;10.50;99.90;;;;;;5052637;28;20186;-62
2023/05/25 04:45:07;;;;;;;0.00;0.00;;;10.80;99.90;;;;;;5061238;28;20291;-63
2023/05/25 04:47:33;;;;;;;0.00;0.00;;;11.10;99.90;;;;;;5073646;28;20165;-62
2023/05/25 04:50:00;;;;;;;0.00;0.00;;;11.30;99.90;;;;;;5055776;28;20234;-62
2023/05/25 04:52:25;;;;;;;0.00;0.00;;;11.50;99.90;;;;;;5053578;28;20242;-62
2023/05/25 04:54:52;;;;;;;0.00;0.00;;;11.70;99.90;;;;;;5053489;28;20173;-62
2023/05/25 04:57:18;;;;;;;0.10;0.08;;;12.00;99.60;;;;;;5053576;28;20193;-62
2023/05/25 04:59:43;;;;;;;0.00;0.00;;;12.20;99.20;;;;;;5053236;28;20177;-62
2023/05/25 05:02:09;;;;;;;0.10;0.10;;;12.50;98.80;;;;;;5053415;28;20178;-62
2023/05/25 05:04:36;;;;;;;0.00;0.00;;;12.70;98.50;;;;;;5053459;28;20535;-62
2023/05/25 05:07:02;;;;;;;0.00;0.00;;;12.90;97.90;;;;;;5053107;28;20707;-62
2023/05/25 05:09:28;;;;;;;0.00;0.00;;;13.20;97.50;;;;;;5053483;28;20195;-62
2023/05/25 05:11:53;;;;;;;0.00;0.00;;;13.50;97.20;;;;;;5053046;28;20194;-62
2023/05/25 05:14:19;;;;;;;0.00;0.00;;;13.90;96.60;;;;;;5053235;28;20162;-62
2023/05/25 05:16:46;;;;;;;0.00;0.00;;;14.20;96.00;;;;;;5053151;28;20208;-62
2023/05/25 05:19:12;;;;;;;0.00;0.00;;;14.50;95.30;;;;;;5053493;28;20632;-63
2023/05/25 05:21:38;;;;;;;0.00;0.00;;;14.70;94.10;;;;;;5053098;28;20177;-62
2023/05/25 05:24:03;;;;;;;0.00;0.00;;;14.70;93.50;;;;;;5052715;28;20583;-62
2023/05/25 05:26:29;;;;;;;0.00;0.00;;;14.80;93.10;;;;;;5053167;28;20209;-62
2023/05/25 05:28:54;;;;;;;0.00;0.00;;;15.00;92.90;;;;;;5051644;28;20730;-62
2023/05/25 05:31:21;;;;;;;0.00;0.00;;;15.30;92.40;;;;;;5052675;28;20212;-62
2023/05/25 05:33:47;;;;;;;0.00;0.00;;;15.50;92.10;;;;;;5052809;28;20307;-62
2023/05/25 05:36:12;;;;;;;0.00;0.00;;;15.60;91.10;;;;;;5052467;28;20173;-62
2023/05/25 05:38:40;;;;;;;0.00;0.00;;;15.70;90.90;;;;;;5052931;28;20174;-62
2023/05/25 05:41:12;;;;;;;0.00;0.00;;;15.80;90.40;;;;;;5052827;28;20335;-62
2023/05/25 05:43:38;;;;;;;0.00;0.00;;;16.00;90.40;;;;;;5052707;28;20513;-62
2023/05/25 05:46:04;;;;;;;0.00;0.00;;;16.40;90.10;;;;;;5052550;28;20201;-62
2023/05/25 05:48:29;;;;;;;0.00;0.00;;;16.60;87.60;;;;;;5052607;28;20181;-62
2023/05/25 05:50:55;;;;;;;0.00;0.00;;;16.60;86.90;;;;;;5052371;28;20545;-62
2023/05/25 05:53:20;;;;;;;0.00;0.00;;;16.70;85.60;;;;;;5052629;28;20174;-62
2023/05/25 05:55:46;;;;;;;0.00;0.00;;;16.90;85.60;;;;;;5052458;28;20269;-62
2023/05/25 05:58:11;;;;;;;0.00;0.00;;;17.20;84.70;;;;;;5052449;28;20176;-62
2023/05/25 06:00:37;;;;;;;0.00;0.00;;;17.30;82.40;;;;;;5052049;28;20187;-62
2023/05/25 06:03:02;;;;;;;0.00;0.00;;;17.30;81.20;;;;;;5052212;28;20200;-63
2023/05/25 06:05:28;;;;;;;0.00;0.00;;;17.50;81.80;;;;;;5052181;28;20764;-62
2023/05/25 06:07:53;;;;;;;0.10;0.10;;;17.60;79.80;;;;;;5052219;28;20186;-62
2023/05/25 06:10:19;;;;;;;0.00;0.00;;;17.70;79.80;;;;;;5052170;28;20230;-62
2023/05/25 06:12:44;;;;;;;0.00;0.00;;;17.70;78.80;;;;;;5052041;28;20181;-62
2023/05/25 06:15:10;;;;;;;0.00;0.00;;;17.90;79.10;;;;;;5051967;28;20641;-62
2023/05/25 06:17:36;;;;;;;0.00;0.00;;;18.10;78.30;;;;;;5052132;28;20181;-62
2023/05/25 06:20:01;;;;;;;0.00;0.00;;;18.60;78.20;;;;;;5051855;28;20218;-62
2023/05/25 06:22:27;;;;;;;0.00;0.00;;;18.80;75.60;;;;;;5052099;28;20641;-62
2023/05/25 06:24:53;;;;;;;0.00;0.00;;;18.90;73.90;;;;;;5051620;28;20261;-62
2023/05/25 06:27:18;;;;;;;0.00;0.00;;;18.90;73.90;;;;;;5051937;28;20185;-62
2023/05/25 06:29:44;;;;;;;0.00;0.00;;;19.10;74.50;;;;;;5051789;28;20254;-63
2023/05/25 06:32:09;;;;;;;1.65;0.20;;;19.30;73.40;;;;;;5051706;28;20487;-62
2023/05/25 06:34:35;;;;;;;0.00;0.00;;;19.60;72.10;;;;;;5051665;28;20189;-62
2023/05/25 06:37:01;;;;;;;0.00;0.00;;;20.20;71.60;;;;;;5051479;28;20185;-62
2023/05/25 06:39:26;;;;;;;0.17;0.17;;;20.60;70.80;;;;;;5051674;28;20216;-62
2023/05/25 06:41:52;;;;;;;0.00;0.00;;;21.20;69.10;;;;;;5050366;28;20170;-62
2023/05/25 06:44:18;;;;;;;0.00;0.00;;;21.60;67.30;;;;;;5050227;28;20186;-62
2023/05/25 06:46:43;;;;;;;0.00;0.00;;;22.10;66.00;;;;;;5050884;28;20259;-62
2023/05/25 06:49:09;;;;;;;0.00;0.00;;;22.20;63.50;;;;;;5045779;28;20239;-62
2023/05/25 06:51:36;;;;;;;0.00;0.00;;;22.30;61.90;;;;;;5051503;28;20347;-62
2023/05/25 06:54:02;;;;;;;0.00;0.00;;;22.40;61.60;;;;;;5051542;28;20189;-62
2023/05/25 06:56:27;;;;;;;0.00;0.00;;;22.20;60.10;;;;;;5051444;28;20530;-62
2023/05/25 06:58:53;;;;;;;0.00;0.00;;;22.10;60.30;;;;;;5050196;28;20178;-62
2023/05/25 07:01:18;;;;;;;0.00;0.00;;;22.20;61.20;;;;;;5051249;28;20252;-62
2023/05/25 07:03:44;;;;;;;0.00;0.00;;;22.50;60.40;;;;;;5051522;28;20280;-62
2023/05/25 07:06:11;;;;;;;0.00;0.00;;;22.70;58.80;;;;;;5051342;28;20217;-62
2023/05/25 07:08:36;;;;;;;0.13;0.13;;;22.50;57.70;;;;;;5051457;28;20253;-62
2023/05/25 07:11:02;;;;;;;0.00;0.00;;;21.90;58.90;;;;;;5051161;28;20593;-62
2023/05/25 07:13:27;;;;;;;0.00;0.00;;;22.10;60.00;;;;;;5051625;28;20659;-61
2023/05/25 07:15:53;;;;;;;0.00;0.00;;;22.30;59.10;;;;;;5051279;28;20645;-62
2023/05/25 07:18:18;;;;;;;0.00;0.00;;;22.40;59.90;;;;;;5051415;28;20181;-62
2023/05/25 07:20:44;;;;;;;0.00;0.00;;;22.60;58.90;;;;;;5051204;28;20193;-62
2023/05/25 07:23:10;;;;;;;0.00;0.00;;;22.90;58.90;;;;;;5051527;28;20189;-62
2023/05/25 07:25:39;;;;;;;0.00;0.00;;;23.10;57.90;;;;;;5050738;28;20260;-62
2023/05/25 07:28:06;;;;;;;0.00;0.00;;;23.40;57.80;;;;;;5051275;28;20181;-62
2023/05/25 07:30:32;;;;;;;0.00;0.00;;;23.50;57.60;;;;;;5031547;28;20174;-62
2023/05/25 07:32:58;;;;;;;0.00;0.00;;;23.90;57.80;;;;;;5031122;28;20285;-62
2023/05/25 07:35:24;;;;;;;0.00;0.00;;;24.20;57.40;;;;;;5030205;28;20685;-62
2023/05/25 07:38:00;;;;;;;0.00;0.00;;;24.60;57.50;;;;;;5031125;28;20692;-62
2023/05/25 07:40:26;;;;;;;0.00;0.00;;;25.30;56.40;;;;;;5031566;28;20260;-62
2023/05/25 07:42:52;;;;;;;0.00;0.00;;;25.20;54.30;;;;;;5031289;28;20220;-62
2023/05/25 07:45:18;;;;;;;0.30;0.30;;;25.00;54.60;;;;;;5031155;28;20210;-62
2023/05/25 07:47:43;;;;;;;0.00;0.00;;;24.80;55.80;;;;;;5031261;28;20537;-62
2023/05/25 07:50:09;;;;;;;0.00;0.00;;;24.90;54.50;;;;;;5049615;28;20671;-63
2023/05/25 07:52:37;;;;;;;0.00;0.00;;;24.70;54.30;;;;;;5051145;28;20177;-62
2023/05/25 07:55:03;;;;;;;0.00;0.00;;;24.50;55.20;;;;;;5050948;28;20739;-62
2023/05/25 07:57:28;;;;;;;0.00;0.00;;;24.70;54.80;;;;;;5051672;28;20177;-62
2023/05/25 07:59:54;;;;;;;0.00;0.00;;;24.50;54.80;;;;;;5055029;28;20178;-62
2023/05/25 08:02:19;;;;;;;0.00;0.00;;;24.40;55.00;;;;;;5054942;28;20651;-62
2023/05/25 08:04:45;;;;;;;0.00;0.00;;;24.30;55.00;;;;;;5054981;28;20197;-62
2023/05/25 08:07:10;;;;;;;0.00;0.00;;;24.30;55.90;;;;;;5054955;28;20286;-62
2023/05/25 08:09:36;;;;;;;0.00;0.00;;;24.30;55.90;;;;;;5054926;28;20247;-62
2023/05/25 08:12:01;;;;;;;0.00;0.00;;;24.40;55.50;;;;;;5054812;28;20189;-62
2023/05/25 08:14:27;;;;;;;0.20;0.10;;;24.40;54.90;;;;;;5054900;28;20173;-62
2023/05/25 08:16:52;;;;;;;0.00;0.00;;;24.10;54.60;;;;;;5054789;28;20177;-62
2023/05/25 08:19:18;;;;;;;0.00;0.00;;;23.80;55.40;;;;;;5054639;28;20165;-62
2023/05/25 08:21:44;;;;;;;0.00;0.00;;;23.50;56.00;;;;;;5054527;28;20266;-62
2023/05/25 08:24:09;;;;;;;0.00;0.00;;;23.30;56.00;;;;;;5054482;28;20229;-62
2023/05/25 08:26:35;;;;;;;0.00;0.00;;;23.00;57.20;;;;;;5054386;28;20278;-62
2023/05/25 08:29:04;;;;;;;0.00;0.00;;;22.90;57.30;;;;;;5054408;28;20177;-62
2023/05/25 08:31:33;;;;;;;0.00;0.00;;;22.80;57.80;;;;;;5054582;28;20542;-62
2023/05/25 08:34:00;;;;;;;0.47;0.47;;;22.80;57.60;;;;;;5052630;28;20660;-62
2023/05/25 08:36:26;;;;;;;0.00;0.00;;;22.90;57.70;;;;;;5054240;28;20192;-61
2023/05/25 08:38:52;;;;;;;0.00;0.00;;;23.00;57.40;;;;;;5054097;28;20257;-61
2023/05/25 08:41:18;;;;;;;0.00;0.00;;;22.90;57.10;;;;;;5054134;28;20277;-62
2023/05/25 08:43:44;;;;;;;0.10;0.10;;;22.60;57.60;;;;;;5054187;28;20575;-61
2023/05/25 08:46:11;;;;;;;0.00;0.00;;;22.40;58.20;;;;;;5052671;28;20241;-62
2023/05/25 08:48:37;;;;;;;0.00;0.00;;;22.50;59.70;;;;;;5049478;28;20272;-62
2023/05/25 08:51:07;;;;;;;0.00;0.00;;;22.70;58.90;;;;;;5053912;28;20181;-61
2023/05/25 08:53:42;;;;;;;0.00;0.00;;;22.80;58.40;;;;;;5054070;28;20196;-62
2023/05/25 08:56:19;;;;;;;0.00;0.00;;;23.00;58.50;;;;;;5053892;28;20192;-61
2023/05/25 08:58:52;;;;;;;0.10;0.10;;;22.90;57.30;;;;;;5053895;28;20169;-61
2023/05/25 09:01:20;;;;;;;0.00;0.00;;;22.90;58.00;;;;;;5053849;28;20189;-61
2023/05/25 09:03:48;;;;;;;0.00;0.00;;;22.80;58.40;;;;;;5053690;28;20193;-61
2023/05/25 09:06:15;;;;;;;0.00;0.00;;;22.70;58.10;;;;;;5053724;28;20221;-62
2023/05/25 09:08:42;;;;;;;0.00;0.00;;;22.80;58.70;;;;;;5053482;28;20187;-62
2023/05/25 09:11:08;;;;;;;0.00;0.00;;;22.90;58.10;;;;;;5053037;28;20714;-61
2023/05/25 09:13:35;;;;;;;0.00;0.00;;;23.00;58.40;;;;;;5053475;28;20181;-62
2023/05/25 09:16:01;;;;;;;0.00;0.00;;;23.10;59.70;;;;;;5053571;28;20231;-62
2023/05/25 09:18:26;;;;;;;0.57;0.57;;;23.30;57.80;;;;;;5053475;28;20174;-62
2023/05/25 09:20:53;;;;;;;0.00;0.00;;;23.20;58.20;;;;;;5053052;28;20189;-62
2023/05/25 09:23:19;;;;;;;0.00;0.00;;;23.20;57.70;;;;;;5052938;28;20692;-62
2023/05/25 09:25:46;;;;;;;0.00;0.00;;;23.30;57.90;;;;;;5053112;28;20291;-62
2023/05/25 09:28:12;;;;;;;0.00;0.00;;;23.30;58.00;;;;;;5053230;28;20186;-62
2023/05/25 09:30:37;;;;;;;0.00;0.00;;;23.30;57.10;;;;;;5053147;28;20158;-62
2023/05/25 09:33:13;;;;;;;0.00;0.00;;;23.10;57.60;;;;;;5053135;28;20181;-61
2023/05/25 09:35:39;;;;;;;0.00;0.00;;;23.00;59.10;;;;;;5053086;28;20165;-62
2023/05/25 09:38:06;;;;;;;0.00;0.00;;;23.20;58.40;;;;;;5053096;28;20185;-62
2023/05/25 09:40:33;;;;;;;0.00;0.00;;;23.50;58.20;;;;;;5053206;28;20165;-61
2023/05/25 09:42:59;;;;;;;0.00;0.00;;;23.50;57.50;;;;;;5052914;28;20312;-61
2023/05/25 09:45:25;;;;;;;0.17;0.17;;;23.40;58.20;;;;;;5052988;28;20641;-61
2023/05/25 09:47:55;;;;;;;0.00;0.00;;;23.40;57.60;;;;;;5052958;28;20540;-62
2023/05/25 09:50:21;;;;;;;0.00;0.00;;;23.50;58.50;;;;;;5047494;28;20177;-62
2023/05/25 09:52:47;;;;;;;0.47;0.30;;;23.80;58.50;;;;;;5052841;28;20651;-62
2023/05/25 09:55:14;;;;;;;0.00;0.00;;;23.90;57.80;;;;;;5052858;28;20177;-59
2023/05/25 09:57:40;;;;;;;0.00;0.00;;;23.80;57.00;;;;;;5052729;28;20257;-60
2023/05/25 10:00:07;;;;;;;0.00;0.00;;;23.80;57.20;;;;;;5052678;28;20268;-60
2023/05/25 10:02:32;;;;;;;0.00;0.00;;;23.80;57.00;;;;;;5051445;28;20192;-60
2023/05/25 10:04:58;;;;;;;0.00;0.00;;;23.70;57.20;;;;;;5052361;28;20181;-60
2023/05/25 10:07:25;;;;;;;0.00;0.00;;;23.50;57.20;;;;;;5052645;28;20184;-60
2023/05/25 10:09:53;;;;;;;0.00;0.00;;;23.30;57.40;;;;;;5052568;28;20196;-60
2023/05/25 10:12:21;;;;;;;0.00;0.00;;;23.30;58.60;;;;;;5052609;28;20231;-59
2023/05/25 10:14:49;;;;;;;0.10;0.10;;;23.10;57.20;;;;;;5052516;28;20193;-60
2023/05/25 10:17:21;;;;;;;0.15;0.15;;;23.00;57.50;;;;;;5052487;28;20185;-61
2023/05/25 10:19:58;;;;;;;0.00;0.00;;;23.00;58.30;;;;;;5052449;28;20180;-62
2023/05/25 10:22:45;;;;;;;0.00;0.00;;;23.10;58.20;;;;;;5052271;28;20559;-62
2023/05/25 10:25:22;;;;;;;0.00;0.00;;;23.50;59.60;;;;;;5052083;28;22093;-62
2023/05/25 10:27:58;;;;;;;0.00;0.00;;;23.90;57.10;;;;;;5052165;28;20590;-62
2023/05/25 10:30:26;;;;;;;0.00;0.00;;;24.30;57.70;;;;;;5052216;28;20200;-62
2023/05/25 10:32:52;;;;;;;0.00;0.00;;;24.50;56.80;;;;;;5052074;28;20637;-62
2023/05/25 10:35:18;;;;;;;0.00;0.00;;;24.60;56.30;;;;;;5051977;28;20212;-62
2023/05/25 10:37:45;;;;;;;0.00;0.00;;;24.30;55.80;;;;;;5051985;28;20223;-62
2023/05/25 10:40:12;;;;;;;0.32;0.32;;;24.00;55.60;;;;;;5052021;28;20188;-61
2023/05/25 10:42:39;;;;;;;0.10;0.10;;;23.70;55.90;;;;;;5051805;28;20599;-62
2023/05/25 10:45:07;;;;;;;0.00;0.00;;;23.50;56.50;;;;;;5051745;28;20169;-62
2023/05/25 10:47:35;;;;;;;0.00;0.00;;;23.50;57.30;;;;;;5051784;28;20165;-62
2023/05/25 10:50:02;;;;;;;0.00;0.00;;;23.50;57.70;;;;;;5039803;28;20187;-62
2023/05/25 10:52:32;;;;;;;0.00;0.00;;;23.50;57.40;;;;;;5031892;28;20269;-62
2023/05/25 10:55:00;;;;;;;0.00;0.00;;;23.50;57.10;;;;;;5030291;28;20173;-61
2023/05/25 10:57:26;;;;;;;0.28;0.28;;;23.40;57.10;;;;;;5031789;28;20225;-62
2023/05/25 10:59:59;;;;;;;0.10;0.10;;;23.50;57.30;;;;;;5031584;28;20178;-61
2023/05/25 11:02:28;;;;;;;0.00;0.00;;;23.50;56.10;;;;;;5031688;28;20236;-61
2023/05/25 11:05:25;;;;;;;0.05;0.05;;;23.40;56.60;;;;;;5031378;28;20644;-61
2023/05/25 11:07:56;;;;;;;0.00;0.00;;;23.40;58.10;;;;;;5031361;28;20703;-61
2023/05/25 11:10:41;;;;;;;0.00;0.00;;;23.60;57.30;;;;;;5031610;28;20543;-61
2023/05/25 11:13:36;;;;;;;0.00;0.00;;;23.60;57.10;;;;;;5031325;28;21201;-61
2023/05/25 11:16:21;;;;;;;0.00;0.00;;;23.60;57.40;;;;;;5031415;28;20186;-61
2023/05/25 11:18:56;;;;;;;0.00;0.00;;;23.60;57.00;;;;;;5031342;28;20174;-62
2023/05/25 11:21:29;;;;;;;0.00;0.00;;;23.70;57.60;;;;;;5031490;28;20189;-61
2023/05/25 11:23:59;;;;;;;0.00;0.00;;;23.80;57.00;;;;;;5031056;28;20221;-61
2023/05/25 11:26:27;;;;;;;0.00;0.00;;;23.90;56.60;;;;;;5031381;28;20214;-62
2023/05/25 11:28:54;;;;;;;0.00;0.00;;;23.80;56.30;;;;;;5037573;28;20189;-61
2023/05/25 11:31:31;;;;;;;0.00;0.00;;;24.00;57.60;;;;;;5051092;28;20268;-62
2023/05/25 11:33:59;;;;;;;0.00;0.00;;;23.90;56.40;;;;;;5050631;28;20181;-61
2023/05/25 11:36:26;;;;;;;0.00;0.00;;;24.00;57.70;;;;;;5051274;28;20177;-62
2023/05/25 11:38:52;;;;;;;0.20;0.20;;;24.20;57.50;;;;;;5050999;28;20169;-62
2023/05/25 11:41:22;;;;;;;0.03;0.03;;;24.40;57.40;;;;;;5050949;28;20653;-62
2023/05/25 11:43:48;;;;;;;0.00;0.00;;;24.50;56.50;;;;;;5050947;28;20523;-62
2023/05/25 11:46:19;;;;;;;0.00;0.00;;;24.40;56.30;;;;;;5050804;28;20209;-62
2023/05/25 11:48:50;;;;;;;0.00;0.00;;;24.40;56.10;;;;;;5049579;28;20192;-62
2023/05/25 11:51:18;;;;;;;0.00;0.00;;;24.20;56.30;;;;;;5031065;28;20182;-61
2023/05/25 11:53:44;;;;;;;0.00;0.00;;;24.10;56.60;;;;;;5031293;28;20174;-61
2023/05/25 11:56:12;;;;;;;0.00;0.00;;;24.20;57.40;;;;;;5030940;28;20174;-61
2023/05/25 11:58:37;;;;;;;0.00;0.00;;;24.40;58.00;;;;;;5030881;28;20273;-61
2023/05/25 12:01:14;;;;;;;0.00;0.00;;;24.50;56.30;;;;;;5031493;28;20257;-61
2023/05/25 12:03:39;;;;;;;0.00;0.00;;;24.40;56.70;;;;;;5030839;28;20180;-60
2023/05/25 12:06:05;;;;;;;0.00;0.00;;;24.40;56.60;;;;;;5030730;28;20292;-61
2023/05/25 12:08:35;;;;;;;0.00;0.00;;;24.40;56.70;;;;;;5030920;28;20197;-61
2023/05/25 12:11:01;;;;;;;0.08;0.08;;;24.50;55.90;;;;;;5030812;28;20524;-61
2023/05/25 12:13:27;;;;;;;0.00;0.00;;;24.60;56.40;;;;;;5049087;28;20613;-59
2023/05/25 12:15:59;;;;;;;0.00;0.00;;;24.60;57.40;;;;;;5050611;28;20260;-60
2023/05/25 12:18:27;;;;;;;0.00;0.00;;;24.60;57.40;;;;;;5050276;28;20256;-60
2023/05/25 12:20:53;;;;;;;0.00;0.00;;;24.60;56.60;;;;;;5050214;28;20261;-60
2023/05/25 12:23:19;;;;;;;0.00;0.00;;;24.50;56.90;;;;;;5050086;28;20231;-60
2023/05/25 12:25:45;;;;;;;0.00;0.00;;;24.40;56.80;;;;;;5050375;28;20205;-60
2023/05/25 12:28:14;;;;;;;0.00;0.00;;;24.20;57.20;;;;;;5052211;28;20192;-61
2023/05/25 12:30:40;;;;;;;0.00;0.00;;;24.20;57.00;;;;;;5051500;28;20181;-61
2023/05/25 12:33:06;;;;;;;0.00;0.00;;;24.20;56.80;;;;;;5052677;28;20180;-59
2023/05/25 12:35:46;;;;;;;0.00;0.00;;;24.20;57.90;;;;;;5070527;28;20201;-59
2023/05/25 12:38:21;;;;;;;0.00;0.00;;;24.00;57.10;;;;;;5069183;28;20179;-60
2023/05/25 12:40:46;;;;;;;0.00;0.00;;;23.80;57.40;;;;;;5070511;28;20165;-60
2023/05/25 12:43:14;;;;;;;0.22;0.15;;;23.60;57.50;;;;;;5069166;28;20192;-60
2023/05/25 12:45:41;;;;;;;0.00;0.00;;;23.70;58.30;;;;;;5058026;28;20197;-59
2023/05/25 12:48:06;;;;;;;0.00;0.00;;;23.70;58.40;;;;;;5071877;28;20179;-59
2023/05/25 12:50:32;;;;;;;0.00;0.00;;;23.80;58.80;;;;;;5037800;28;20174;-60